Time;durP1;ratioP1;P1;durP2;ratioP2;P2;SDS_P1;SDS_P2;PMS_P1;PMS_P2;Temp;Humidity;BMP_temperature;BMP_pressure;BME280_temperature;BME280_humidity;BME280_pressure;Samples;Min_cycle;Max_cycle;Signal;HPM_P1;HPM_P2
2021/10/20 00:00:22;;;;;;;28.27;16.93;;;15.80;99.90;;;;;;5040316;28;23177;-74
2021/10/20 00:02:49;;;;;;;20.63;16.73;;;15.80;99.90;;;;;;5041307;28;20428;-74
2021/10/20 00:05:18;;;;;;;22.97;17.97;;;15.80;99.90;;;;;;5041376;28;20427;-74
2021/10/20 00:07:45;;;;;;;19.20;16.37;;;15.70;99.90;;;;;;5039708;28;20526;-74
2021/10/20 00:10:11;;;;;;;19.70;15.83;;;15.80;99.90;;;;;;5041119;28;20881;-74
2021/10/20 00:12:38;;;;;;;20.67;15.43;;;15.70;99.90;;;;;;5041541;28;20892;-74
2021/10/20 00:15:07;;;;;;;17.13;14.10;;;15.70;99.90;;;;;;5038983;28;20524;-74
2021/10/20 00:17:33;;;;;;;18.27;14.73;;;15.70;99.90;;;;;;5042258;28;20514;-74
2021/10/20 00:20:06;;;;;;;18.77;15.20;;;15.70;99.90;;;;;;5040612;28;20424;-74
2021/10/20 00:22:33;;;;;;;17.60;14.17;;;15.70;99.90;;;;;;5043040;28;20439;-74
2021/10/20 00:24:59;;;;;;;16.87;15.03;;;15.60;99.90;;;;;;5041081;28;20755;-74
2021/10/20 00:27:26;;;;;;;20.00;15.53;;;15.60;99.90;;;;;;5037816;28;20443;-74
2021/10/20 00:29:52;;;;;;;17.80;14.40;;;15.60;99.90;;;;;;5041940;28;20185;-74
2021/10/20 00:32:18;;;;;;;16.70;14.37;;;15.60;99.90;;;;;;5040533;28;20420;-74
2021/10/20 00:34:43;;;;;;;24.13;15.43;;;15.50;99.90;;;;;;5041007;28;20444;-74
2021/10/20 00:37:09;;;;;;;18.17;14.63;;;15.50;99.90;;;;;;5040044;28;20251;-74
2021/10/20 00:39:35;;;;;;;17.40;13.97;;;15.50;99.90;;;;;;5038639;28;20557;-74
2021/10/20 00:42:00;;;;;;;17.83;13.20;;;15.40;99.90;;;;;;5040917;28;20257;-74
2021/10/20 00:44:26;;;;;;;16.87;14.50;;;15.50;99.90;;;;;;5040935;28;20165;-74
2021/10/20 00:46:52;;;;;;;18.60;15.10;;;15.40;99.90;;;;;;5037880;28;20177;-74
2021/10/20 00:49:18;;;;;;;15.90;12.47;;;15.50;99.90;;;;;;5037473;28;20181;-74
2021/10/20 00:51:44;;;;;;;15.33;12.67;;;15.50;99.90;;;;;;5037980;28;20577;-74
2021/10/20 00:54:09;;;;;;;14.83;12.40;;;15.50;99.90;;;;;;5043224;28;20916;-74
2021/10/20 00:56:35;;;;;;;16.60;11.53;;;15.40;99.90;;;;;;5045636;28;20201;-75
2021/10/20 00:59:02;;;;;;;15.97;11.97;;;15.30;99.90;;;;;;5042511;28;20269;-74
2021/10/20 01:01:27;;;;;;;16.43;12.87;;;15.30;99.90;;;;;;5046139;28;20432;-74
2021/10/20 01:03:53;;;;;;;14.27;11.60;;;15.40;99.90;;;;;;5044204;28;20434;-74
2021/10/20 01:06:19;;;;;;;12.57;11.17;;;15.40;99.90;;;;;;5043929;28;20192;-74
2021/10/20 01:08:44;;;;;;;14.67;10.60;;;15.50;99.90;;;;;;5043694;28;20225;-74
2021/10/20 01:11:10;;;;;;;15.27;11.50;;;15.50;99.90;;;;;;5044703;28;20213;-74
2021/10/20 01:13:37;;;;;;;16.67;11.10;;;15.50;99.90;;;;;;5047112;28;20253;-74
2021/10/20 01:16:03;;;;;;;12.40;10.73;;;15.40;99.90;;;;;;5041571;28;20460;-74
2021/10/20 01:18:29;;;;;;;13.47;11.00;;;15.40;99.90;;;;;;5041840;28;20427;-74
2021/10/20 01:20:59;;;;;;;11.87;10.40;;;15.50;99.90;;;;;;5045660;28;20435;-74
2021/10/20 01:23:25;;;;;;;14.60;10.27;;;15.50;99.90;;;;;;5044987;28;20458;-74
2021/10/20 01:25:51;;;;;;;11.07;10.00;;;15.50;99.90;;;;;;5042455;28;20516;-74
2021/10/20 01:28:17;;;;;;;11.53;9.77;;;15.50;99.90;;;;;;5043505;28;20862;-74
2021/10/20 01:30:43;;;;;;;10.67;8.73;;;15.50;99.90;;;;;;5043056;28;20531;-74
2021/10/20 01:33:10;;;;;;;14.07;9.97;;;15.40;99.90;;;;;;5040937;28;20184;-74
2021/10/20 01:35:36;;;;;;;11.70;9.50;;;15.40;99.90;;;;;;5041862;28;20202;-74
2021/10/20 01:38:03;;;;;;;12.63;9.77;;;15.30;99.90;;;;;;5041216;28;20489;-74
2021/10/20 01:40:28;;;;;;;9.87;8.83;;;15.30;99.90;;;;;;5041964;28;20420;-75
2021/10/20 01:42:54;;;;;;;10.53;9.10;;;15.20;99.90;;;;;;5047651;28;20999;-74
2021/10/20 01:45:20;;;;;;;10.90;9.50;;;15.20;99.90;;;;;;5040794;28;20178;-74
2021/10/20 01:47:46;;;;;;;10.93;9.87;;;15.20;99.90;;;;;;5041896;28;20178;-74
2021/10/20 01:50:13;;;;;;;12.23;9.83;;;15.10;99.90;;;;;;5041168;28;20431;-74
2021/10/20 01:52:39;;;;;;;11.50;10.30;;;15.10;99.90;;;;;;5042527;28;20493;-74
2021/10/20 01:55:13;;;;;;;13.37;10.10;;;15.10;99.90;;;;;;5043944;28;20465;-74
2021/10/20 01:57:39;;;;;;;10.80;9.33;;;15.00;99.90;;;;;;5041752;28;20630;-74
2021/10/20 02:00:06;;;;;;;11.20;9.43;;;15.00;99.90;;;;;;5039205;28;20431;-74
2021/10/20 02:02:31;;;;;;;9.67;8.60;;;15.00;99.90;;;;;;5041416;28;20519;-74
2021/10/20 02:04:57;;;;;;;9.50;8.47;;;15.00;99.90;;;;;;5044743;28;20523;-74
2021/10/20 02:07:23;;;;;;;9.20;8.33;;;14.90;99.90;;;;;;5041935;28;20169;-74
2021/10/20 02:09:49;;;;;;;12.70;8.80;;;14.90;99.90;;;;;;5039585;28;20221;-74
2021/10/20 02:12:14;;;;;;;12.07;9.00;;;15.00;99.90;;;;;;5044023;28;20174;-74
2021/10/20 02:14:41;;;;;;;9.00;8.10;;;15.00;99.90;;;;;;5043280;28;20197;-74
2021/10/20 02:17:06;;;;;;;8.83;7.97;;;14.90;99.90;;;;;;5042800;28;20194;-74
2021/10/20 02:19:33;;;;;;;9.50;8.13;;;14.90;99.90;;;;;;5044418;28;20496;-74
2021/10/20 02:21:59;;;;;;;11.50;8.67;;;14.90;99.90;;;;;;5042037;28;20174;-74
2021/10/20 02:24:25;;;;;;;9.57;8.67;;;14.90;99.90;;;;;;5044750;28;20435;-74
2021/10/20 02:26:51;;;;;;;10.13;9.07;;;14.90;99.90;;;;;;5041491;28;20436;-74
2021/10/20 02:29:17;;;;;;;10.53;8.47;;;14.90;99.90;;;;;;5045185;28;20554;-74
2021/10/20 02:31:46;;;;;;;9.60;8.70;;;14.90;99.90;;;;;;5041298;28;20233;-74
2021/10/20 02:34:17;;;;;;;8.90;7.90;;;15.00;99.90;;;;;;5042126;28;20185;-74
2021/10/20 02:36:43;;;;;;;8.93;8.10;;;14.90;99.90;;;;;;5039336;28;20474;-74
2021/10/20 02:39:10;;;;;;;8.20;7.50;;;14.90;99.90;;;;;;5043627;28;20589;-74
2021/10/20 02:41:36;;;;;;;8.90;6.87;;;14.90;99.90;;;;;;5040557;28;20452;-74
2021/10/20 02:44:02;;;;;;;8.30;7.50;;;14.90;99.90;;;;;;5041915;28;20428;-74
2021/10/20 02:46:30;;;;;;;12.60;7.87;;;14.90;99.90;;;;;;5044435;28;20185;-74
2021/10/20 02:48:55;;;;;;;8.47;7.60;;;15.00;99.90;;;;;;5040148;28;20523;-74
2021/10/20 02:51:21;;;;;;;7.87;7.17;;;14.90;99.90;;;;;;5040952;28;20927;-74
2021/10/20 02:53:47;;;;;;;6.83;6.13;;;14.90;99.90;;;;;;5041958;28;20283;-74
2021/10/20 02:56:15;;;;;;;7.40;6.80;;;14.90;99.90;;;;;;5042399;28;20231;-74
2021/10/20 02:58:41;;;;;;;7.77;6.97;;;14.90;99.90;;;;;;5041957;28;20186;-74
2021/10/20 03:01:06;;;;;;;6.90;6.30;;;14.90;99.90;;;;;;5040052;28;20436;-74
2021/10/20 03:03:32;;;;;;;6.90;6.30;;;14.80;99.90;;;;;;5039873;28;20611;-74
2021/10/20 03:05:58;;;;;;;7.47;6.60;;;14.80;99.90;;;;;;5042228;28;20194;-74
2021/10/20 03:08:24;;;;;;;10.07;7.23;;;14.80;99.90;;;;;;5042290;28;20451;-74
2021/10/20 03:10:49;;;;;;;7.57;6.43;;;14.70;99.90;;;;;;5039157;28;20178;-74
2021/10/20 03:13:15;;;;;;;7.70;7.00;;;14.80;99.90;;;;;;5041707;28;20186;-74
2021/10/20 03:15:40;;;;;;;8.67;7.13;;;14.80;99.90;;;;;;5040194;28;20607;-74
2021/10/20 03:18:06;;;;;;;7.20;6.03;;;14.80;99.90;;;;;;5041029;28;20260;-74
2021/10/20 03:20:32;;;;;;;9.23;6.30;;;14.80;99.90;;;;;;5039347;28;20277;-74
2021/10/20 03:22:58;;;;;;;5.83;5.33;;;14.80;99.90;;;;;;5043977;28;20178;-74
2021/10/20 03:25:24;;;;;;;6.83;5.73;;;14.70;99.90;;;;;;5041023;28;20243;-75
2021/10/20 03:27:51;;;;;;;7.17;5.90;;;14.70;99.90;;;;;;5043051;28;20435;-74
2021/10/20 03:30:19;;;;;;;6.43;5.90;;;14.70;99.90;;;;;;5041259;28;20264;-74
2021/10/20 03:32:44;;;;;;;5.60;5.07;;;14.70;99.90;;;;;;5040424;28;20439;-74
2021/10/20 03:35:12;;;;;;;8.33;5.33;;;14.70;99.90;;;;;;5042090;28;20475;-74
2021/10/20 03:37:38;;;;;;;6.10;5.60;;;14.80;99.90;;;;;;5043167;28;20510;-74
2021/10/20 03:40:05;;;;;;;7.60;6.20;;;14.80;99.90;;;;;;5042082;28;23061;-74
2021/10/20 03:42:31;;;;;;;5.73;5.13;;;14.80;99.90;;;;;;5041799;28;20891;-74
2021/10/20 03:44:57;;;;;;;6.70;5.60;;;14.80;99.90;;;;;;5043873;28;20419;-74
2021/10/20 03:47:23;;;;;;;6.40;5.90;;;14.70;99.90;;;;;;5039505;28;20544;-74
2021/10/20 03:49:49;;;;;;;5.17;4.70;;;14.80;99.90;;;;;;5041486;28;20780;-74
2021/10/20 03:52:16;;;;;;;6.30;5.70;;;14.80;99.90;;;;;;5040840;28;20217;-74
2021/10/20 03:54:42;;;;;;;8.17;5.40;;;14.80;99.90;;;;;;5043697;28;20436;-74
2021/10/20 03:57:08;;;;;;;5.67;5.17;;;14.80;99.90;;;;;;5041505;28;20555;-74
2021/10/20 03:59:34;;;;;;;5.27;4.83;;;14.80;99.90;;;;;;5043661;28;20419;-74
2021/10/20 04:02:00;;;;;;;5.03;4.60;;;14.80;99.90;;;;;;5040088;28;20440;-74
2021/10/20 04:04:26;;;;;;;7.00;5.30;;;14.80;99.90;;;;;;5042226;28;20473;-74
2021/10/20 04:06:51;;;;;;;6.60;5.87;;;14.80;99.90;;;;;;5041719;28;20190;-74
2021/10/20 04:09:17;;;;;;;5.37;4.90;;;14.80;99.90;;;;;;5040069;28;20193;-74
2021/10/20 04:11:43;;;;;;;6.43;4.70;;;14.70;99.90;;;;;;5042071;28;20193;-74
2021/10/20 04:14:09;;;;;;;4.70;4.30;;;14.70;99.90;;;;;;5041226;28;20196;-74
2021/10/20 04:16:34;;;;;;;4.97;4.47;;;14.70;99.90;;;;;;5038621;28;20534;-74
2021/10/20 04:19:00;;;;;;;4.80;4.50;;;14.70;99.90;;;;;;5040926;28;20180;-74
2021/10/20 04:21:26;;;;;;;6.07;5.20;;;14.70;99.90;;;;;;5042573;28;20178;-74
2021/10/20 04:23:51;;;;;;;5.47;4.70;;;14.60;99.90;;;;;;5042427;28;20570;-74
2021/10/20 04:26:17;;;;;;;6.83;4.80;;;14.60;99.90;;;;;;5039189;28;20189;-74
2021/10/20 04:28:42;;;;;;;7.50;4.70;;;14.60;99.90;;;;;;5041429;28;20196;-74
2021/10/20 04:31:08;;;;;;;6.13;5.03;;;14.60;99.90;;;;;;5039593;28;20185;-74
2021/10/20 04:33:34;;;;;;;5.97;4.47;;;14.60;99.90;;;;;;5040507;28;20182;-74
2021/10/20 04:35:59;;;;;;;5.20;4.70;;;14.60;99.90;;;;;;5040820;28;20241;-74
2021/10/20 04:38:25;;;;;;;5.27;4.73;;;14.60;99.90;;;;;;5040167;28;20598;-74
2021/10/20 04:40:50;;;;;;;4.77;4.33;;;14.60;99.90;;;;;;5040400;28;20181;-74
2021/10/20 04:43:16;;;;;;;4.30;4.00;;;14.70;99.90;;;;;;5041382;28;20264;-74
2021/10/20 04:45:42;;;;;;;6.37;4.33;;;14.60;99.90;;;;;;5039665;28;20182;-74
2021/10/20 04:48:07;;;;;;;5.67;5.10;;;14.60;99.90;;;;;;5039757;28;20189;-74
2021/10/20 04:50:33;;;;;;;5.23;4.73;;;14.60;99.90;;;;;;5038012;28;20185;-74
2021/10/20 04:52:59;;;;;;;5.20;4.80;;;14.60;99.90;;;;;;5041413;28;20196;-74
2021/10/20 04:55:24;;;;;;;8.13;4.80;;;14.50;99.90;;;;;;5042874;28;20235;-74
2021/10/20 04:57:52;;;;;;;4.30;4.00;;;14.50;99.90;;;;;;5040221;28;20179;-74
2021/10/20 05:00:20;;;;;;;4.50;4.10;;;14.50;99.90;;;;;;5035570;28;20182;-74
2021/10/20 05:02:46;;;;;;;4.83;4.53;;;14.50;99.90;;;;;;5040925;28;20455;-74
2021/10/20 05:05:11;;;;;;;4.33;3.93;;;14.60;99.90;;;;;;5039328;28;20524;-74
2021/10/20 05:07:48;;;;;;;4.77;4.47;;;14.60;99.90;;;;;;5039344;28;20231;-74
2021/10/20 05:10:14;;;;;;;4.63;4.13;;;14.70;99.90;;;;;;5039582;28;20281;-74
2021/10/20 05:12:40;;;;;;;4.53;4.00;;;14.70;99.90;;;;;;5040844;28;20510;-74
2021/10/20 05:15:05;;;;;;;5.10;4.70;;;14.70;99.90;;;;;;5041016;28;20216;-74
2021/10/20 05:17:31;;;;;;;8.03;6.00;;;14.60;99.90;;;;;;5036027;28;20173;-74
2021/10/20 05:19:57;;;;;;;5.13;4.73;;;14.60;99.90;;;;;;5039680;28;20189;-74
2021/10/20 05:22:22;;;;;;;4.93;4.53;;;14.60;99.90;;;;;;5041862;28;20174;-74
2021/10/20 05:24:48;;;;;;;7.50;5.10;;;14.60;99.90;;;;;;5039069;28;20185;-74
2021/10/20 05:27:14;;;;;;;6.47;5.00;;;14.70;99.90;;;;;;5040829;28;20520;-74
2021/10/20 05:29:39;;;;;;;4.93;4.63;;;14.70;99.90;;;;;;5040926;28;20240;-74
2021/10/20 05:32:05;;;;;;;5.87;5.27;;;14.70;99.90;;;;;;5035471;28;20186;-74
2021/10/20 05:34:31;;;;;;;5.10;4.67;;;14.70;99.90;;;;;;5040788;28;20609;-74
2021/10/20 05:36:56;;;;;;;5.20;4.70;;;14.70;99.90;;;;;;5037899;28;20214;-74
2021/10/20 05:39:22;;;;;;;4.90;4.40;;;14.80;99.90;;;;;;5041622;28;20954;-74
2021/10/20 05:41:50;;;;;;;5.27;4.77;;;14.80;99.90;;;;;;5042537;28;20182;-74
2021/10/20 05:44:16;;;;;;;5.77;5.00;;;14.80;99.90;;;;;;5042790;28;20428;-74
2021/10/20 05:46:42;;;;;;;6.30;5.73;;;14.80;99.90;;;;;;5040928;28;20432;-74
2021/10/20 05:49:07;;;;;;;7.43;5.20;;;14.80;99.90;;;;;;5041619;28;20766;-74
2021/10/20 05:51:33;;;;;;;6.10;5.60;;;14.80;99.90;;;;;;5045234;28;20197;-74
2021/10/20 05:53:59;;;;;;;5.50;5.00;;;14.80;99.90;;;;;;5042948;28;20228;-74
2021/10/20 05:56:25;;;;;;;5.20;4.60;;;14.80;99.90;;;;;;5040447;28;20193;-74
2021/10/20 05:58:50;;;;;;;7.00;5.33;;;14.80;99.90;;;;;;5043055;28;20432;-74
2021/10/20 06:01:17;;;;;;;4.77;4.30;;;14.70;99.90;;;;;;5041401;28;20693;-74
2021/10/20 06:03:43;;;;;;;6.33;5.20;;;14.80;99.90;;;;;;5040757;28;20585;-74
2021/10/20 06:06:08;;;;;;;5.93;5.27;;;14.70;99.90;;;;;;5044216;28;20448;-74
2021/10/20 06:08:34;;;;;;;5.43;5.07;;;14.70;99.90;;;;;;5041791;28;20182;-74
2021/10/20 06:11:00;;;;;;;6.10;5.20;;;14.70;99.90;;;;;;5042227;28;20186;-74
2021/10/20 06:13:26;;;;;;;5.60;5.10;;;14.60;99.90;;;;;;5042228;28;20673;-74
2021/10/20 06:15:51;;;;;;;5.97;5.00;;;14.60;99.90;;;;;;5040396;28;20640;-74
2021/10/20 06:18:17;;;;;;;5.30;4.60;;;14.60;99.90;;;;;;5041595;28;20177;-74
2021/10/20 06:20:42;;;;;;;4.47;4.10;;;14.60;99.90;;;;;;5044524;28;20189;-74
2021/10/20 06:23:08;;;;;;;5.90;5.27;;;14.60;99.90;;;;;;5041589;28;20189;-74
2021/10/20 06:25:34;;;;;;;7.00;5.53;;;14.60;99.90;;;;;;5042421;28;20181;-74
2021/10/20 06:27:59;;;;;;;4.30;3.90;;;14.60;99.90;;;;;;5042265;28;20185;-74
2021/10/20 06:30:25;;;;;;;5.87;5.10;;;14.60;99.90;;;;;;5040259;28;20188;-74
2021/10/20 06:32:51;;;;;;;5.80;4.70;;;14.60;99.90;;;;;;5042117;28;20169;-74
2021/10/20 06:35:16;;;;;;;5.47;5.07;;;14.60;99.90;;;;;;5039804;28;20212;-74
2021/10/20 06:37:47;;;;;;;4.40;4.00;;;14.60;99.90;;;;;;5040113;28;20264;-74
2021/10/20 06:40:13;;;;;;;5.33;4.83;;;14.70;99.90;;;;;;5041747;28;20194;-74
2021/10/20 06:42:39;;;;;;;5.87;5.00;;;14.70;99.90;;;;;;5040721;28;20433;-74
2021/10/20 06:45:05;;;;;;;4.93;4.03;;;14.70;99.90;;;;;;5042626;28;20178;-74
2021/10/20 06:47:31;;;;;;;5.40;4.97;;;14.70;99.90;;;;;;5042477;28;20202;-74
2021/10/20 06:49:56;;;;;;;6.00;5.20;;;14.70;99.90;;;;;;5044752;28;20432;-74
2021/10/20 06:52:22;;;;;;;6.13;4.60;;;14.70;99.90;;;;;;5042177;28;20374;-74
2021/10/20 06:54:48;;;;;;;5.13;4.60;;;14.60;99.90;;;;;;5046019;28;20173;-74
2021/10/20 06:57:13;;;;;;;7.20;4.77;;;14.70;99.90;;;;;;5038836;28;20231;-75
2021/10/20 06:59:41;;;;;;;6.63;4.03;;;14.80;99.90;;;;;;5031594;28;20300;-75
2021/10/20 07:02:06;;;;;;;10.60;5.37;;;14.70;99.90;;;;;;5042205;28;20543;-75
2021/10/20 07:04:32;;;;;;;5.20;4.70;;;14.80;99.90;;;;;;5040989;28;20425;-74
2021/10/20 07:06:57;;;;;;;4.63;4.33;;;14.70;99.90;;;;;;5040880;28;20193;-74
2021/10/20 07:09:23;;;;;;;6.23;4.83;;;14.70;99.90;;;;;;5041703;28;20478;-75
2021/10/20 07:11:49;;;;;;;5.27;4.77;;;14.70;99.90;;;;;;5035001;28;20588;-74
2021/10/20 07:14:15;;;;;;;5.50;5.00;;;14.70;99.90;;;;;;5038376;28;20197;-74
2021/10/20 07:16:41;;;;;;;6.37;5.70;;;14.70;99.90;;;;;;5039657;28;21256;-74
2021/10/20 07:19:07;;;;;;;5.70;5.07;;;14.80;99.90;;;;;;5049246;28;20293;-74
2021/10/20 07:21:38;;;;;;;7.10;5.93;;;14.80;99.90;;;;;;5042655;28;20430;-74
2021/10/20 07:24:04;;;;;;;6.70;6.10;;;14.80;99.90;;;;;;5044308;28;20757;-73
2021/10/20 07:26:31;;;;;;;6.33;5.83;;;14.90;99.90;;;;;;5045823;28;20489;-74
2021/10/20 07:28:56;;;;;;;8.43;5.90;;;14.90;99.90;;;;;;5047068;28;20439;-74
2021/10/20 07:31:29;;;;;;;9.23;6.60;;;14.90;99.90;;;;;;5042379;28;20869;-73
2021/10/20 07:33:55;;;;;;;7.07;6.13;;;14.90;99.90;;;;;;5046275;28;20228;-73
2021/10/20 07:36:20;;;;;;;7.50;6.60;;;14.90;99.90;;;;;;5043478;28;20486;-73
2021/10/20 07:38:46;;;;;;;9.83;5.77;;;15.00;99.90;;;;;;5048915;28;20470;-73
2021/10/20 07:41:12;;;;;;;6.57;5.90;;;15.00;99.90;;;;;;5052217;28;20174;-73
2021/10/20 07:43:37;;;;;;;6.57;5.77;;;15.00;99.90;;;;;;5053051;28;20652;-73
2021/10/20 07:46:03;;;;;;;6.60;5.90;;;15.00;99.90;;;;;;5047636;28;20191;-73
2021/10/20 07:48:29;;;;;;;8.87;6.50;;;15.00;99.90;;;;;;5050418;28;20249;-74
2021/10/20 07:50:54;;;;;;;13.07;7.10;;;15.00;99.90;;;;;;5044706;28;20190;-74
2021/10/20 07:53:20;;;;;;;7.90;6.87;;;15.00;99.90;;;;;;5045252;28;20235;-73
2021/10/20 07:55:45;;;;;;;13.77;7.60;;;15.10;99.90;;;;;;5043524;28;20275;-73
2021/10/20 07:58:11;;;;;;;8.00;7.20;;;15.10;99.90;;;;;;5047049;28;20234;-74
2021/10/20 08:00:37;;;;;;;9.50;6.57;;;15.20;99.90;;;;;;5046153;28;20185;-73
2021/10/20 08:03:02;;;;;;;6.70;6.10;;;15.20;99.90;;;;;;5046287;28;20184;-73
2021/10/20 08:05:28;;;;;;;8.07;7.03;;;15.20;99.90;;;;;;5043774;28;20181;-73
2021/10/20 08:07:54;;;;;;;7.60;6.87;;;15.30;99.90;;;;;;5044925;28;20559;-73
2021/10/20 08:10:26;;;;;;;8.57;7.60;;;15.30;99.90;;;;;;5046648;28;20428;-73
2021/10/20 08:12:53;;;;;;;8.73;6.53;;;15.40;99.90;;;;;;5045236;28;20177;-73
2021/10/20 08:15:19;;;;;;;7.60;6.57;;;15.40;99.90;;;;;;5052090;28;20455;-74
2021/10/20 08:17:46;;;;;;;10.83;8.03;;;15.50;99.90;;;;;;5051766;28;20463;-73
2021/10/20 08:20:15;;;;;;;9.00;7.90;;;15.50;99.90;;;;;;5051338;28;20428;-73
2021/10/20 08:22:41;;;;;;;9.97;6.93;;;15.60;99.90;;;;;;5052169;28;20464;-74
2021/10/20 08:25:09;;;;;;;8.97;6.97;;;15.70;99.90;;;;;;5052718;28;20562;-73
2021/10/20 08:27:35;;;;;;;8.80;7.13;;;15.70;99.90;;;;;;5045042;28;20427;-74
2021/10/20 08:30:01;;;;;;;9.40;6.90;;;15.70;99.90;;;;;;5046179;28;20426;-73
2021/10/20 08:32:27;;;;;;;8.00;7.20;;;15.80;99.90;;;;;;5043583;28;20427;-74
2021/10/20 08:34:52;;;;;;;8.27;7.23;;;15.80;99.90;;;;;;5039929;28;20575;-74
2021/10/20 08:37:18;;;;;;;7.33;6.63;;;15.80;99.90;;;;;;5046444;28;20210;-74
2021/10/20 08:39:45;;;;;;;8.03;7.23;;;15.90;99.90;;;;;;5045063;28;20493;-74
2021/10/20 08:42:11;;;;;;;8.10;6.60;;;15.80;99.90;;;;;;5042406;28;20209;-74
2021/10/20 08:44:37;;;;;;;8.20;7.40;;;15.80;99.90;;;;;;5040388;28;20737;-74
2021/10/20 08:47:03;;;;;;;10.00;6.97;;;15.80;99.90;;;;;;5038456;28;20431;-74
2021/10/20 08:49:29;;;;;;;8.20;7.00;;;15.80;99.90;;;;;;5038786;28;20211;-74
2021/10/20 08:51:56;;;;;;;7.90;7.20;;;15.90;99.90;;;;;;5037828;28;20794;-74
2021/10/20 08:54:22;;;;;;;10.67;7.67;;;15.90;99.90;;;;;;5036525;28;20924;-74
2021/10/20 08:56:48;;;;;;;7.37;6.57;;;16.00;99.90;;;;;;5038092;28;20475;-74
2021/10/20 08:59:15;;;;;;;8.30;7.07;;;16.00;99.90;;;;;;5041972;28;20433;-74
2021/10/20 09:01:41;;;;;;;8.00;7.20;;;16.10;99.90;;;;;;5040498;28;20177;-74
2021/10/20 09:04:10;;;;;;;10.27;7.80;;;16.10;99.90;;;;;;5038373;28;20443;-74
2021/10/20 09:06:37;;;;;;;11.33;6.70;;;16.10;99.90;;;;;;5039338;28;20510;-74
2021/10/20 09:09:07;;;;;;;8.53;7.20;;;16.10;99.90;;;;;;5038171;28;20464;-74
2021/10/20 09:11:33;;;;;;;9.20;6.57;;;16.10;99.90;;;;;;5039383;28;20177;-74
2021/10/20 09:14:01;;;;;;;8.97;7.53;;;16.20;99.90;;;;;;5042812;28;20432;-74
2021/10/20 09:16:27;;;;;;;9.30;7.60;;;16.20;99.90;;;;;;5040807;28;20522;-74
2021/10/20 09:18:53;;;;;;;8.60;7.07;;;16.30;99.90;;;;;;5041734;28;20490;-74
2021/10/20 09:21:18;;;;;;;8.43;6.47;;;16.40;99.90;;;;;;5038690;28;20444;-82
2021/10/20 09:23:44;;;;;;;7.70;6.70;;;16.40;99.90;;;;;;5039999;28;20260;-76
2021/10/20 09:26:09;;;;;;;7.40;6.70;;;16.50;99.90;;;;;;5037685;28;20190;-76
2021/10/20 09:28:38;;;;;;;9.30;7.20;;;16.50;99.90;;;;;;5040435;28;20212;-77
2021/10/20 09:31:08;;;;;;;7.80;7.10;;;16.50;99.90;;;;;;5039626;28;20201;-76
2021/10/20 09:33:34;;;;;;;8.20;7.10;;;16.60;99.90;;;;;;5039509;28;20460;-77
2021/10/20 09:36:02;;;;;;;7.67;6.50;;;16.70;99.90;;;;;;5041263;28;20463;-76
2021/10/20 09:38:32;;;;;;;9.37;6.37;;;16.70;99.90;;;;;;5035053;28;20424;-76
2021/10/20 09:41:06;;;;;;;7.20;6.60;;;16.70;99.90;;;;;;5039470;28;20432;-77
2021/10/20 09:43:38;;;;;;;9.90;7.33;;;16.70;99.90;;;;;;5041285;28;20436;-76
2021/10/20 09:46:04;;;;;;;8.10;6.73;;;16.80;99.90;;;;;;5040286;28;20511;-76
2021/10/20 09:48:29;;;;;;;8.73;7.73;;;16.90;99.90;;;;;;5040632;28;20531;-76
2021/10/20 09:51:12;;;;;;;7.63;6.93;;;17.00;99.90;;;;;;5036877;28;20286;-76
2021/10/20 09:53:41;;;;;;;6.67;5.97;;;17.10;99.90;;;;;;5039925;28;20185;-76
2021/10/20 09:56:19;;;;;;;9.93;6.53;;;17.30;99.90;;;;;;5037611;28;20792;-76
2021/10/20 09:58:46;;;;;;;7.93;6.40;;;17.30;99.90;;;;;;5038048;28;21102;-77
2021/10/20 10:01:17;;;;;;;7.77;6.00;;;17.30;99.90;;;;;;5038790;28;20427;-76
2021/10/20 10:03:43;;;;;;;9.00;6.17;;;17.40;99.90;;;;;;5039357;28;21000;-76
2021/10/20 10:06:09;;;;;;;7.10;6.40;;;17.50;99.90;;;;;;5037024;28;20431;-77
2021/10/20 10:08:35;;;;;;;6.77;6.07;;;17.60;99.90;;;;;;5038557;28;20434;-76
2021/10/20 10:11:01;;;;;;;8.43;6.97;;;17.70;99.90;;;;;;5040849;28;20685;-76
2021/10/20 10:13:30;;;;;;;6.97;6.37;;;17.60;99.90;;;;;;5039829;28;20253;-76
2021/10/20 10:15:59;;;;;;;6.83;6.03;;;17.60;99.90;;;;;;5037151;28;20478;-76
2021/10/20 10:18:25;;;;;;;7.17;6.33;;;17.60;99.90;;;;;;5038976;28;20433;-76
2021/10/20 10:20:51;;;;;;;7.13;6.40;;;17.70;99.90;;;;;;5037173;28;20818;-76
2021/10/20 10:23:25;;;;;;;7.33;5.63;;;17.80;99.90;;;;;;5034240;28;20512;-76
2021/10/20 10:26:04;;;;;;;11.83;6.23;;;17.80;99.90;;;;;;5038605;28;20172;-76
2021/10/20 10:28:32;;;;;;;6.50;5.90;;;17.70;99.90;;;;;;5036725;28;20506;-76
2021/10/20 10:30:57;;;;;;;6.30;5.70;;;17.70;99.90;;;;;;5035075;28;20455;-76
2021/10/20 10:33:24;;;;;;;7.17;5.60;;;17.70;99.90;;;;;;5037322;28;20435;-76
2021/10/20 10:36:10;;;;;;;6.40;5.80;;;17.80;99.90;;;;;;5041709;28;20583;-76
2021/10/20 10:38:45;;;;;;;6.00;5.50;;;17.80;99.90;;;;;;5036200;28;20431;-76
2021/10/20 10:41:19;;;;;;;6.40;5.80;;;17.80;99.90;;;;;;5033360;28;21039;-76
2021/10/20 10:44:03;;;;;;;6.33;5.83;;;17.70;99.90;;;;;;5039658;28;20432;-76
2021/10/20 10:46:32;;;;;;;6.60;5.70;;;17.60;99.90;;;;;;5037661;28;20437;-76
2021/10/20 10:48:58;;;;;;;7.33;6.63;;;17.50;99.90;;;;;;5040144;28;20441;-76
2021/10/20 10:51:24;;;;;;;6.47;5.87;;;17.50;99.90;;;;;;5035010;28;20449;-76
2021/10/20 10:53:55;;;;;;;6.27;5.77;;;17.40;99.90;;;;;;5031797;28;20187;-76
2021/10/20 10:56:22;;;;;;;7.70;6.20;;;17.30;99.90;;;;;;5037533;28;20471;-76
2021/10/20 10:58:59;;;;;;;6.63;5.93;;;17.30;99.90;;;;;;5037824;28;20420;-77
2021/10/20 11:01:49;;;;;;;11.23;6.70;;;17.30;99.90;;;;;;5037269;28;20904;-76
2021/10/20 11:04:21;;;;;;;8.27;5.90;;;17.20;99.90;;;;;;5033164;28;20440;-76
2021/10/20 11:06:51;;;;;;;6.43;5.83;;;17.30;99.90;;;;;;5039153;28;20464;-76
2021/10/20 11:09:21;;;;;;;5.83;5.33;;;17.20;99.90;;;;;;5042556;28;20439;-76
2021/10/20 11:11:52;;;;;;;5.50;5.00;;;17.20;99.90;;;;;;5039689;28;20444;-76
2021/10/20 11:14:21;;;;;;;5.80;5.30;;;17.20;99.90;;;;;;5039529;28;20429;-76
2021/10/20 11:16:48;;;;;;;8.70;6.07;;;17.30;99.90;;;;;;5042722;28;20468;-75
2021/10/20 11:19:20;;;;;;;7.93;7.13;;;17.40;99.90;;;;;;5040880;28;20440;-76
2021/10/20 11:21:46;;;;;;;6.03;5.53;;;17.40;99.90;;;;;;5042743;28;20421;-76
2021/10/20 11:24:15;;;;;;;5.87;5.37;;;17.40;99.90;;;;;;5038982;28;20437;-76
2021/10/20 11:26:44;;;;;;;8.30;5.70;;;17.40;99.90;;;;;;5036304;28;20204;-76
2021/10/20 11:29:12;;;;;;;6.47;5.80;;;17.40;99.90;;;;;;5034373;28;20439;-76
2021/10/20 11:31:39;;;;;;;10.70;6.20;;;17.40;99.90;;;;;;5034611;28;20444;-76
2021/10/20 11:34:23;;;;;;;6.37;5.80;;;17.50;99.90;;;;;;5038495;28;20436;-76
2021/10/20 11:36:50;;;;;;;6.60;5.90;;;17.50;99.90;;;;;;5033074;28;20460;-77
2021/10/20 11:39:16;;;;;;;5.27;4.87;;;17.50;99.90;;;;;;5038674;28;20787;-76
2021/10/20 11:41:53;;;;;;;7.50;5.10;;;17.50;99.90;;;;;;5036683;28;20464;-76
2021/10/20 11:44:33;;;;;;;5.23;4.83;;;17.70;99.90;;;;;;5037965;28;20428;-76
2021/10/20 11:47:02;;;;;;;6.73;6.13;;;17.70;99.90;;;;;;5037908;28;20425;-76
2021/10/20 11:49:28;;;;;;;6.33;5.73;;;17.70;99.90;;;;;;5040841;28;20497;-76
2021/10/20 11:51:54;;;;;;;7.27;5.53;;;17.50;99.90;;;;;;5041413;28;20968;-76
2021/10/20 11:54:21;;;;;;;6.40;5.90;;;17.40;99.90;;;;;;5035645;28;20435;-76
2021/10/20 11:56:51;;;;;;;8.70;5.70;;;17.40;99.90;;;;;;5036114;28;20474;-76
2021/10/20 11:59:22;;;;;;;5.87;5.33;;;17.30;99.90;;;;;;5038875;28;20428;-76
2021/10/20 12:01:49;;;;;;;6.03;5.50;;;17.40;99.90;;;;;;5037742;28;20429;-76
2021/10/20 12:04:15;;;;;;;9.70;5.43;;;17.30;99.90;;;;;;5035878;28;20857;-76
2021/10/20 12:06:41;;;;;;;6.97;6.10;;;17.30;99.90;;;;;;5036736;28;20435;-76
2021/10/20 12:09:11;;;;;;;5.40;4.90;;;17.30;99.90;;;;;;5037079;28;20432;-76
2021/10/20 12:11:37;;;;;;;8.00;5.87;;;17.30;99.90;;;;;;5035854;28;20440;-76
2021/10/20 12:14:04;;;;;;;8.47;5.63;;;17.30;99.90;;;;;;5038955;28;20451;-76
2021/10/20 12:16:31;;;;;;;6.33;5.83;;;17.30;99.90;;;;;;5035181;28;20463;-76
2021/10/20 12:18:58;;;;;;;5.90;5.37;;;17.30;99.90;;;;;;5037434;28;20447;-76
2021/10/20 12:21:28;;;;;;;5.90;5.50;;;17.20;99.90;;;;;;5036540;28;20800;-76
2021/10/20 12:23:57;;;;;;;6.93;6.27;;;17.20;99.90;;;;;;5040595;28;20474;-76
2021/10/20 12:26:25;;;;;;;10.00;6.60;;;17.20;99.90;;;;;;5039209;28;20443;-76
2021/10/20 12:28:53;;;;;;;6.50;5.97;;;17.10;99.90;;;;;;5035890;28;20436;-76
2021/10/20 12:31:20;;;;;;;7.87;6.17;;;17.10;99.90;;;;;;5035958;28;20507;-76
2021/10/20 12:33:48;;;;;;;7.00;6.40;;;17.10;99.90;;;;;;5037562;28;20432;-76
2021/10/20 12:36:17;;;;;;;7.80;7.00;;;17.00;99.90;;;;;;5028356;28;20460;-76
2021/10/20 12:38:46;;;;;;;6.57;5.97;;;17.00;99.90;;;;;;5021808;28;20444;-76
2021/10/20 12:41:20;;;;;;;7.40;6.70;;;17.00;99.90;;;;;;5033165;28;20862;-76